Time;durP1;ratioP1;P1;durP2;ratioP2;P2;SDS_P1;SDS_P2;PMS_P1;PMS_P2;Temp;Humidity;BMP_temperature;BMP_pressure;BME280_temperature;BME280_humidity;BME280_pressure;Samples;Min_cycle;Max_cycle;Signal;HPM_P1;HPM_P2
2021/10/02 00:35:48;;;;;;;6.00;5.50;;;11.50;91.70;;;10.33;93.64;97937.06;5021879;28;20467;-71
2021/10/02 00:41:13;;;;;;;5.13;4.63;;;11.30;92.40;;;10.07;94.53;97944.22;5028092;28;20451;-72
2021/10/02 00:46:26;;;;;;;6.73;5.23;;;11.10;93.20;;;10.06;94.41;97937.16;5041723;28;20990;-71
2021/10/02 00:48:53;;;;;;;6.97;5.47;;;11.10;93.00;;;10.04;95.13;97944.66;5023742;28;20546;-73
2021/10/02 00:51:21;;;;;;;5.30;4.90;;;11.10;93.80;;;9.94;96.55;97937.03;5026269;28;20513;-72
2021/10/02 00:53:48;;;;;;;5.50;5.00;;;11.00;94.00;;;10.02;95.68;97936.78;5026808;28;20991;-72
2021/10/02 00:56:17;;;;;;;6.00;5.50;;;11.10;94.30;;;9.92;95.97;97939.09;5020605;28;20455;-72
2021/10/02 00:58:48;;;;;;;5.60;5.20;;;11.00;94.10;;;10.13;96.14;97937.16;5026719;28;20481;-73
2021/10/02 01:01:21;;;;;;;5.30;4.80;;;11.10;94.90;;;10.21;95.33;97945.00;5027842;28;20873;-71
2021/10/02 01:04:02;;;;;;;5.43;4.93;;;11.20;93.90;;;10.03;95.52;97945.69;5027545;28;20482;-72
2021/10/02 01:06:53;;;;;;;5.50;5.00;;;11.10;94.00;;;10.26;94.94;97930.88;5021497;28;20458;-72
2021/10/02 01:09:43;;;;;;;5.23;4.23;;;11.10;94.40;;;10.31;94.23;97944.53;5039416;28;20551;-72
2021/10/02 01:12:22;;;;;;;5.97;5.47;;;11.30;93.40;;;10.38;93.89;97939.13;5022128;28;20450;-72
2021/10/02 01:14:54;;;;;;;5.83;5.23;;;11.40;92.80;;;10.26;93.89;97914.66;5028552;28;20568;-72
2021/10/02 01:17:30;;;;;;;7.70;5.37;;;11.50;92.60;;;10.38;93.63;97939.13;5024955;28;20458;-72
2021/10/02 01:20:05;;;;;;;5.33;4.90;;;11.50;92.50;;;10.25;94.63;97935.44;5023719;28;20548;-72
2021/10/02 01:22:57;;;;;;;5.20;4.80;;;11.40;92.80;;;10.20;94.55;97952.28;5033093;28;21048;-71
2021/10/02 01:25:47;;;;;;;6.00;5.50;;;11.30;92.80;;;10.19;94.87;97941.72;5028167;28;20482;-72
2021/10/02 01:28:19;;;;;;;5.67;5.27;;;11.30;93.20;;;10.10;95.03;97954.63;5043621;28;20451;-72
2021/10/02 01:31:01;;;;;;;5.73;5.27;;;11.20;93.40;;;10.06;95.27;97956.06;5031478;28;20489;-72
2021/10/02 01:33:40;;;;;;;5.70;5.20;;;11.20;93.70;;;9.86;96.25;97956.97;5040843;28;20451;-72
2021/10/02 01:36:24;;;;;;;6.17;4.70;;;11.00;94.40;;;9.81;96.89;97961.34;5027145;28;20682;-72
2021/10/02 01:47:17;;;;;;;7.63;5.70;;;11.10;94.50;;;10.06;96.40;97953.38;5021061;28;20454;-72
2021/10/02 01:49:48;;;;;;;6.03;5.53;;;11.10;94.50;;;10.13;95.13;97958.75;5024070;28;20864;-72
2021/10/02 01:52:17;;;;;;;5.47;4.97;;;11.20;93.80;;;10.17;95.46;97962.69;5022022;28;20558;-71
2021/10/02 01:54:46;;;;;;;5.87;5.37;;;11.20;93.60;;;10.13;95.96;97954.19;5023578;28;20478;-71
2021/10/02 01:57:13;;;;;;;5.47;5.07;;;11.20;93.90;;;9.96;95.80;97961.09;5023070;28;20569;-70
2021/10/02 01:59:44;;;;;;;5.70;5.20;;;11.10;93.90;;;9.94;97.03;97955.91;5020977;28;20955;-71
2021/10/02 02:02:12;;;;;;;5.90;5.40;;;11.00;94.70;;;9.88;96.58;97957.59;5022729;28;20450;-71
2021/10/02 02:04:40;;;;;;;6.00;5.20;;;11.00;94.70;;;9.77;97.25;97966.31;5027349;28;20528;-71
2021/10/02 02:07:09;;;;;;;6.30;5.70;;;10.90;95.10;;;9.76;97.59;97970.91;5028452;28;20446;-71
2021/10/02 02:09:38;;;;;;;5.77;5.30;;;10.90;95.70;;;9.77;98.41;97960.94;5024464;28;20493;-71
2021/10/02 02:12:13;;;;;;;6.47;5.97;;;10.90;96.20;;;9.72;98.80;97960.75;5013127;28;20467;-73
2021/10/02 02:14:45;;;;;;;7.03;5.80;;;10.80;96.20;;;9.69;98.84;97958.47;5024259;28;20714;-71
2021/10/02 02:17:15;;;;;;;6.17;5.67;;;10.80;97.40;;;9.67;99.53;97955.16;5021149;28;20513;-71
2021/10/02 02:19:45;;;;;;;6.60;6.10;;;10.80;97.90;;;9.67;99.53;97971.34;5016550;28;21047;-71
2021/10/02 02:22:13;;;;;;;6.10;5.60;;;10.80;98.70;;;9.74;99.34;97961.34;5021422;28;20494;-71
2021/10/02 02:24:41;;;;;;;5.90;5.40;;;10.80;99.10;;;9.97;98.41;97962.75;5020733;28;20536;-71
2021/10/02 02:27:08;;;;;;;6.00;5.50;;;10.90;98.00;;;9.98;98.01;97956.31;5019388;28;20450;-71
2021/10/02 02:29:35;;;;;;;7.03;5.57;;;11.00;96.40;;;9.98;98.16;97961.72;5026216;28;20880;-72
2021/10/02 02:32:05;;;;;;;7.50;5.37;;;11.10;96.30;;;9.91;98.66;97959.84;5023018;28;20857;-71
2021/10/02 02:34:32;;;;;;;6.90;5.67;;;11.00;96.60;;;10.12;97.50;97959.78;5028777;28;21018;-71
2021/10/02 02:37:00;;;;;;;6.80;6.20;;;11.10;96.50;;;10.26;96.32;97956.00;5031107;28;20504;-71
2021/10/02 02:39:28;;;;;;;6.40;5.90;;;11.30;95.20;;;10.32;95.76;97957.84;5031176;28;20511;-72
2021/10/02 02:41:56;;;;;;;5.70;5.20;;;11.30;94.00;;;10.36;95.14;97950.13;5028623;28;20466;-71
2021/10/02 02:44:23;;;;;;;7.37;5.97;;;11.40;93.70;;;10.31;95.27;97944.53;5029315;28;20489;-71
2021/10/02 02:46:58;;;;;;;7.00;6.30;;;11.40;93.30;;;10.38;94.86;97950.72;5025742;28;20498;-71
2021/10/02 02:49:39;;;;;;;6.37;5.83;;;11.40;93.40;;;10.28;95.39;97959.28;5027945;28;20540;-71
2021/10/02 02:52:12;;;;;;;5.70;5.20;;;11.40;93.50;;;10.32;95.68;97955.16;5025757;28;21029;-71
2021/10/02 02:54:45;;;;;;;6.30;5.70;;;11.30;93.90;;;10.22;95.46;97952.06;5027835;28;21021;-70
2021/10/02 02:57:16;;;;;;;6.20;5.70;;;11.30;93.70;;;10.20;95.39;97954.97;5025031;28;20476;-71
2021/10/02 02:59:51;;;;;;;6.10;5.60;;;11.30;93.60;;;10.28;95.62;97953.91;5029568;28;20963;-70
2021/10/02 03:02:21;;;;;;;6.87;6.27;;;11.30;93.80;;;10.28;95.81;97956.59;5028146;28;20845;-71
2021/10/02 03:04:53;;;;;;;6.37;5.80;;;11.30;93.70;;;10.29;94.99;97960.94;5029394;28;21186;-71
2021/10/02 03:07:24;;;;;;;7.07;6.00;;;11.30;93.60;;;10.29;95.28;97960.94;5029082;28;20840;-70
2021/10/02 03:09:52;;;;;;;5.80;5.40;;;11.30;93.50;;;10.19;95.36;97947.91;5028496;28;20552;-71
2021/10/02 03:12:27;;;;;;;6.90;6.30;;;11.30;93.70;;;10.08;96.24;97962.06;5028293;28;20450;-71
2021/10/02 03:14:55;;;;;;;7.00;6.30;;;11.20;94.00;;;10.03;96.34;97960.03;5030620;28;20481;-71
2021/10/02 03:17:23;;;;;;;6.40;5.90;;;11.20;94.00;;;10.01;96.90;97955.88;5032034;28;20471;-71
2021/10/02 03:19:52;;;;;;;6.93;6.30;;;11.10;94.80;;;10.02;95.78;97946.75;5028517;28;20541;-71
2021/10/02 03:22:20;;;;;;;5.97;5.37;;;11.10;94.70;;;9.94;96.92;97941.59;5028278;28;20845;-71
2021/10/02 03:24:50;;;;;;;6.77;6.20;;;11.00;95.60;;;9.96;97.00;97953.81;5029474;28;20501;-70
2021/10/02 03:27:17;;;;;;;6.77;6.17;;;11.00;95.50;;;10.01;97.29;97950.50;5030087;28;20532;-71
2021/10/02 03:29:45;;;;;;;7.13;6.53;;;11.00;96.00;;;9.97;96.88;97947.38;5038128;28;20545;-70
2021/10/02 03:32:13;;;;;;;7.00;6.40;;;11.10;95.20;;;9.92;97.58;97947.19;5029131;28;20557;-71
2021/10/02 03:34:40;;;;;;;7.23;6.63;;;11.00;95.40;;;9.99;96.58;97957.97;5022720;28;21049;-71
2021/10/02 03:37:09;;;;;;;6.57;6.07;;;11.10;95.40;;;9.91;96.89;97956.34;5021951;28;20454;-71
2021/10/02 03:39:36;;;;;;;6.93;6.10;;;11.10;95.00;;;9.99;96.75;97958.78;5028023;28;20553;-71
2021/10/02 03:42:10;;;;;;;6.00;5.60;;;11.10;94.80;;;9.84;96.11;97926.69;5023059;28;20537;-71
2021/10/02 03:44:41;;;;;;;6.90;6.30;;;11.10;94.40;;;9.96;95.91;97955.72;5040047;28;20473;-72
2021/10/02 03:47:08;;;;;;;6.87;6.30;;;11.10;94.30;;;9.91;97.11;97953.66;5027597;28;21019;-72
2021/10/02 03:49:36;;;;;;;7.10;6.50;;;11.10;94.70;;;9.98;96.65;97948.22;5024467;28;20493;-71
2021/10/02 03:52:04;;;;;;;6.17;5.67;;;11.10;94.50;;;9.90;96.38;97950.09;5027251;28;20917;-72
2021/10/02 03:54:32;;;;;;;7.87;6.87;;;11.10;94.60;;;9.83;97.11;97953.88;5029409;28;20474;-72
2021/10/02 03:56:59;;;;;;;7.30;6.63;;;11.00;94.50;;;9.80;97.49;97955.13;5025675;28;20460;-71
2021/10/02 03:59:26;;;;;;;7.83;6.93;;;11.00;94.70;;;9.81;96.79;97959.50;5026654;28;20558;-72
2021/10/02 04:01:53;;;;;;;6.67;6.17;;;11.00;94.80;;;9.83;97.11;97954.72;5028542;28;20544;-71
2021/10/02 04:04:22;;;;;;;7.13;6.43;;;11.00;95.10;;;9.82;96.96;97942.25;5028656;28;20554;-71
2021/10/02 04:06:49;;;;;;;7.33;6.63;;;10.90;95.30;;;9.87;96.83;97947.03;5030732;28;20462;-72
2021/10/02 04:09:16;;;;;;;8.40;7.40;;;11.00;94.60;;;9.77;97.09;97950.13;5031364;28;20459;-72
2021/10/02 04:11:45;;;;;;;6.87;6.37;;;10.90;94.90;;;9.74;97.07;97945.16;5027764;28;20855;-72
2021/10/02 04:14:12;;;;;;;6.60;6.10;;;10.90;94.80;;;9.76;96.64;97943.09;5029962;28;20478;-72
2021/10/02 04:16:39;;;;;;;7.30;6.70;;;10.90;94.90;;;9.74;97.34;97934.38;5027877;28;20486;-72
2021/10/02 04:19:06;;;;;;;7.70;7.00;;;10.90;94.90;;;9.78;97.25;97935.59;5028524;28;20520;-72
2021/10/02 04:21:33;;;;;;;7.37;6.67;;;10.90;94.70;;;9.64;97.50;97935.66;5025252;28;20528;-72
2021/10/02 04:24:00;;;;;;;7.37;6.67;;;10.90;94.70;;;9.63;96.98;97936.72;5030217;28;20556;-71
2021/10/02 04:26:27;;;;;;;6.80;6.20;;;10.80;94.70;;;9.70;97.29;97941.25;5025916;28;20462;-70
2021/10/02 04:28:56;;;;;;;6.87;6.37;;;10.80;94.90;;;9.57;97.15;97918.66;5036645;28;20491;-70
2021/10/02 04:31:23;;;;;;;7.20;6.60;;;10.80;94.80;;;9.70;96.84;97939.38;5026700;28;20504;-70
2021/10/02 04:33:50;;;;;;;7.83;6.97;;;10.80;94.80;;;9.54;97.67;97932.56;5029717;28;20454;-71
2021/10/02 04:36:17;;;;;;;7.67;7.00;;;10.80;94.90;;;9.50;97.76;97940.25;5033155;28;20533;-70
2021/10/02 04:38:46;;;;;;;7.57;6.87;;;10.70;95.60;;;9.42;98.09;97940.47;5027749;28;20490;-72
2021/10/02 04:41:13;;;;;;;8.00;7.30;;;10.60;95.60;;;9.40;98.44;97933.63;5026729;28;20617;-73
2021/10/02 04:43:43;;;;;;;8.13;7.43;;;10.50;95.90;;;9.37;98.17;97937.56;5023988;28;20502;-73
2021/10/02 04:46:12;;;;;;;7.80;7.07;;;10.50;96.00;;;9.30;98.66;97924.09;5025603;28;20521;-73
2021/10/02 04:48:40;;;;;;;8.83;7.90;;;10.50;96.40;;;9.29;98.49;97938.63;5029024;28;20553;-72
2021/10/02 04:51:09;;;;;;;8.87;8.17;;;10.50;95.90;;;9.21;98.52;97944.25;5016600;28;20462;-72
2021/10/02 04:53:37;;;;;;;8.30;7.60;;;10.40;96.40;;;9.18;99.56;97939.28;5026722;28;20490;-72
2021/10/02 04:56:07;;;;;;;8.43;7.73;;;10.30;97.20;;;9.15;99.11;97940.50;5038640;28;20792;-72
2021/10/02 04:58:35;;;;;;;8.90;8.10;;;10.30;97.50;;;9.06;99.56;97925.56;5030803;28;20444;-71
2021/10/02 05:01:03;;;;;;;8.50;7.80;;;10.30;98.10;;;9.12;99.36;97948.16;5027156;28;20459;-71
2021/10/02 05:03:31;;;;;;;9.30;8.27;;;10.20;98.10;;;9.14;99.44;97946.94;5029198;28;20478;-72
2021/10/02 05:05:58;;;;;;;9.53;8.57;;;10.30;99.20;;;9.17;100.00;97956.44;5023654;28;21110;-73
2021/10/02 05:08:25;;;;;;;8.53;7.80;;;10.30;99.10;;;9.21;100.00;97958.53;5027296;28;20569;-72
2021/10/02 05:10:52;;;;;;;8.37;7.67;;;10.30;99.90;;;9.24;99.35;97961.84;5023319;28;20521;-72
2021/10/02 05:13:19;;;;;;;9.87;8.27;;;10.40;99.00;;;9.27;99.50;97956.88;5026502;28;20460;-72
2021/10/02 05:15:46;;;;;;;9.63;8.73;;;10.40;98.40;;;9.43;99.73;97970.97;5035594;28;20636;-71
2021/10/02 05:18:13;;;;;;;9.10;8.30;;;10.50;98.40;;;9.62;97.95;97970.09;5026140;28;20451;-72
2021/10/02 05:20:42;;;;;;;8.43;7.67;;;10.60;97.10;;;9.57;97.85;97964.50;5024048;28;20824;-72
2021/10/02 05:23:09;;;;;;;8.93;8.03;;;10.70;96.00;;;9.69;97.64;97969.28;5018696;28;20472;-71
2021/10/02 05:25:36;;;;;;;10.83;8.53;;;10.80;95.60;;;9.69;97.66;97969.28;5034157;28;20567;-68
2021/10/02 05:28:03;;;;;;;8.50;7.70;;;10.80;95.40;;;9.63;97.82;97971.78;5024621;28;20555;-69
2021/10/02 05:30:30;;;;;;;8.33;7.57;;;10.80;95.40;;;9.65;97.81;97968.84;5044958;28;20454;-68
2021/10/02 05:32:58;;;;;;;9.13;8.23;;;10.80;95.40;;;9.75;97.07;97961.16;5022041;28;20447;-68
2021/10/02 05:35:25;;;;;;;9.27;8.37;;;10.80;95.50;;;9.69;97.00;97955.78;5023683;28;20605;-73
2021/10/02 05:37:54;;;;;;;9.00;8.10;;;10.80;95.40;;;9.80;96.93;97971.31;5021325;28;20478;-65
2021/10/02 05:40:20;;;;;;;8.90;8.10;;;10.90;94.90;;;9.86;96.44;97965.06;5021914;28;20494;-82
2021/10/02 05:42:48;;;;;;;8.27;7.47;;;10.90;94.70;;;9.92;96.54;97975.00;5033624;28;20486;-81
2021/10/02 05:45:14;;;;;;;8.97;8.27;;;11.00;94.50;;;9.95;96.17;97975.66;5033609;28;20517;-79
2021/10/02 05:47:42;;;;;;;9.47;8.60;;;11.00;93.80;;;10.04;95.48;97968.94;5031499;28;20467;-80
2021/10/02 05:50:10;;;;;;;7.80;7.20;;;11.10;93.60;;;10.11;96.01;97977.03;5020904;28;20497;-80
2021/10/02 05:52:37;;;;;;;8.77;8.00;;;11.20;93.60;;;10.13;94.61;97977.63;5028360;28;21053;-80
2021/10/02 05:55:07;;;;;;;8.53;7.80;;;11.20;93.30;;;10.20;94.88;97973.06;5023101;28;20474;-79
2021/10/02 05:57:34;;;;;;;8.00;7.30;;;11.30;93.00;;;10.19;95.44;97968.69;5023573;28;20955;-78
2021/10/02 06:00:08;;;;;;;8.40;7.70;;;11.30;93.00;;;10.15;95.42;97965.59;5017952;28;20558;-77
2021/10/02 06:02:35;;;;;;;9.17;7.40;;;11.30;92.90;;;10.20;95.14;97965.78;5015202;28;20482;-78
2021/10/02 06:05:02;;;;;;;9.27;8.47;;;11.30;93.10;;;10.25;94.05;97973.22;5024125;28;21233;-75
2021/10/02 06:07:30;;;;;;;8.73;8.00;;;11.40;92.60;;;10.18;95.30;97973.25;5024539;28;20694;-77
2021/10/02 06:09:57;;;;;;;9.50;8.70;;;11.30;92.70;;;10.34;94.79;97987.31;5019499;28;20454;-79
2021/10/02 06:12:26;;;;;;;9.00;8.10;;;11.40;92.80;;;10.35;93.97;97983.56;5027866;28;20451;-79
2021/10/02 06:14:53;;;;;;;8.17;7.47;;;11.50;92.60;;;10.36;94.58;97979.81;5020563;28;20482;-81
2021/10/02 06:17:20;;;;;;;9.17;8.30;;;11.50;92.70;;;10.65;93.22;97983.03;5024444;28;20548;-80
2021/10/02 06:19:47;;;;;;;9.60;8.70;;;11.60;92.20;;;10.79;92.08;97982.97;5024065;28;20528;-80
2021/10/02 06:22:14;;;;;;;8.63;7.93;;;11.80;91.20;;;10.82;91.70;97987.91;5025092;28;20473;-79
2021/10/02 06:24:41;;;;;;;8.27;7.27;;;11.90;90.90;;;11.00;91.08;97988.03;5043837;28;20481;-80
2021/10/02 06:27:08;;;;;;;9.00;8.20;;;12.00;90.30;;;11.00;91.31;97985.31;5025778;28;20488;-80
2021/10/02 06:29:37;;;;;;;8.97;8.07;;;12.10;90.00;;;11.14;90.40;97985.19;5041281;28;20911;-79
2021/10/02 06:32:05;;;;;;;8.20;7.40;;;12.20;89.80;;;11.16;90.15;97989.34;5041745;28;20541;-80
2021/10/02 06:34:32;;;;;;;8.67;7.87;;;12.30;88.90;;;11.33;89.77;97981.53;5026395;28;20486;-79
2021/10/02 06:36:59;;;;;;;8.33;7.60;;;12.40;88.20;;;11.44;88.49;97979.13;5027926;28;20486;-79
2021/10/02 06:39:26;;;;;;;8.50;7.43;;;12.50;87.20;;;11.48;88.79;97974.94;5023392;28;20500;-80
2021/10/02 06:41:53;;;;;;;9.67;8.67;;;12.60;87.30;;;11.30;89.78;97981.97;5043635;28;20527;-79
2021/10/02 06:44:20;;;;;;;8.30;7.60;;;12.60;87.20;;;11.51;88.59;97979.06;5022941;28;21073;-79
2021/10/02 06:46:48;;;;;;;8.73;8.03;;;12.60;87.40;;;11.42;88.74;97973.13;5028110;28;20454;-79
2021/10/02 06:49:15;;;;;;;7.53;6.77;;;12.50;87.10;;;11.51;88.33;97977.19;5027189;28;20466;-79
2021/10/02 06:51:42;;;;;;;8.30;7.50;;;12.60;86.90;;;11.43;88.33;97977.47;5039290;28;21070;-80
2021/10/02 06:54:10;;;;;;;7.20;6.50;;;12.50;87.30;;;11.44;88.43;97966.44;5024993;28;20474;-86
2021/10/02 06:56:37;;;;;;;10.77;8.03;;;12.50;87.30;;;11.22;89.48;97966.00;5027264;28;20463;-79
2021/10/02 06:59:04;;;;;;;8.77;8.07;;;12.40;87.60;;;11.37;89.32;97962.94;5025407;28;20462;-84
2021/10/02 07:01:31;;;;;;;12.93;8.40;;;12.40;88.20;;;11.25;88.76;97938.50;5029691;28;20469;-81
2021/10/02 07:04:00;;;;;;;8.90;7.83;;;12.40;87.80;;;11.45;88.83;97967.28;5022778;28;20553;-79
2021/10/02 07:06:27;;;;;;;8.80;7.93;;;12.50;88.00;;;11.53;88.66;97972.41;5028450;28;20541;-80
2021/10/02 07:08:54;;;;;;;9.30;8.40;;;12.50;87.50;;;11.69;87.85;97964.75;5024283;28;20489;-79
2021/10/02 07:11:21;;;;;;;8.60;7.70;;;12.60;87.20;;;11.72;88.03;97962.44;5023367;28;21036;-80
2021/10/02 07:13:48;;;;;;;9.73;8.50;;;12.70;87.10;;;11.88;87.38;97954.75;5019765;28;20550;-79
2021/10/02 07:16:15;;;;;;;9.00;8.10;;;12.80;86.60;;;11.82;87.74;97953.78;5021910;28;20564;-81
2021/10/02 07:18:42;;;;;;;8.30;7.40;;;12.90;86.50;;;11.98;87.21;97954.22;5023343;28;20473;-80
2021/10/02 07:21:11;;;;;;;8.80;8.00;;;13.00;86.60;;;12.49;85.47;97946.75;5027707;28;20536;-71
2021/10/02 07:23:38;;;;;;;8.70;7.90;;;13.30;85.50;;;12.83;83.32;97951.69;5018738;28;20459;-80
2021/10/02 07:26:06;;;;;;;9.47;6.70;;;13.70;83.80;;;13.31;81.42;97952.59;5026874;28;20486;-81
2021/10/02 07:28:33;;;;;;;8.30;7.53;;;14.20;82.60;;;13.74;79.92;97956.06;5029163;28;20457;-80
2021/10/02 07:31:01;;;;;;;7.73;7.07;;;14.60;80.80;;;14.23;77.67;97953.00;5026541;28;20520;-79
2021/10/02 07:33:28;;;;;;;8.60;7.80;;;15.00;79.80;;;14.41;76.12;97954.72;5026666;28;20463;-80
2021/10/02 07:35:55;;;;;;;6.83;6.23;;;15.40;77.30;;;14.88;74.21;97963.75;5031174;28;20606;-78
2021/10/02 07:38:23;;;;;;;8.93;7.27;;;15.80;76.30;;;15.24;73.20;97961.66;5026004;28;20455;-78
2021/10/02 07:40:51;;;;;;;8.53;7.20;;;16.10;75.10;;;15.46;71.83;97950.00;5026479;28;20526;-78
2021/10/02 07:43:21;;;;;;;7.57;6.60;;;16.40;73.40;;;15.47;72.17;97948.94;5019999;28;20557;-80
2021/10/02 07:45:51;;;;;;;7.20;6.60;;;16.50;72.80;;;15.68;70.39;97954.66;5022862;28;20479;-77
2021/10/02 07:48:22;;;;;;;8.37;7.23;;;16.60;71.60;;;16.05;69.46;97951.41;5026172;28;20477;-78
2021/10/02 07:50:49;;;;;;;7.93;7.00;;;16.80;71.30;;;16.22;68.60;97953.25;5025813;28;20561;-78
2021/10/02 07:53:16;;;;;;;7.30;6.67;;;17.10;70.50;;;16.31;68.73;97967.25;5027595;28;20566;-78
2021/10/02 07:55:47;;;;;;;7.67;6.90;;;17.20;70.10;;;16.26;68.61;97965.28;5022270;28;20480;-79
2021/10/02 07:58:14;;;;;;;7.60;6.80;;;17.30;69.80;;;16.47;67.06;97971.00;5021139;28;20561;-81
2021/10/02 08:00:42;;;;;;;8.03;7.23;;;17.50;68.50;;;16.39;68.02;97978.53;5023374;28;20549;-80
2021/10/02 08:03:09;;;;;;;7.33;6.70;;;17.30;68.70;;;16.34;67.74;97981.19;5017628;28;20553;-80
2021/10/02 08:05:36;;;;;;;7.90;7.00;;;17.20;68.70;;;16.49;66.08;97979.72;5026778;28;20489;-80
2021/10/02 08:08:03;;;;;;;8.10;7.27;;;17.40;67.40;;;16.14;66.81;97979.84;5023861;28;20486;-79
2021/10/02 08:10:30;;;;;;;7.77;6.83;;;17.20;67.20;;;16.18;67.03;97982.09;5022309;28;20545;-82
2021/10/02 08:13:00;;;;;;;8.03;6.03;;;17.20;67.30;;;16.96;65.92;97968.22;5026445;28;20558;-83
2021/10/02 08:15:27;;;;;;;7.43;6.70;;;17.60;68.00;;;16.73;64.83;97973.97;5022966;28;20917;-81
2021/10/02 08:17:56;;;;;;;7.47;6.67;;;17.60;66.20;;;16.45;65.88;97973.13;5035678;28;20465;-82
2021/10/02 08:20:24;;;;;;;7.67;6.50;;;17.50;66.30;;;16.04;67.08;97968.84;5021933;28;20532;-70
2021/10/02 08:22:55;;;;;;;7.10;6.40;;;17.30;66.30;;;16.29;66.17;97965.59;5031869;28;20447;-79
2021/10/02 08:25:22;;;;;;;6.57;5.97;;;17.20;66.40;;;15.97;67.17;97970.91;5015790;28;20476;-80
2021/10/02 08:27:49;;;;;;;6.70;6.10;;;17.10;66.30;;;16.12;66.85;97967.56;5032709;28;20462;-72
2021/10/02 08:30:20;;;;;;;7.47;6.17;;;17.10;66.50;;;16.10;66.20;97954.19;5024125;28;20464;-76
2021/10/02 08:32:47;;;;;;;6.47;5.87;;;17.10;66.20;;;16.37;65.39;97955.31;5020796;28;20541;-80
2021/10/02 08:35:15;;;;;;;6.60;6.10;;;17.10;66.00;;;16.60;64.61;97946.03;5019392;28;20489;-82
2021/10/02 08:37:43;;;;;;;7.40;6.70;;;17.40;65.50;;;16.74;64.54;97951.91;5026974;28;20959;-70
2021/10/02 08:44:24;;;;;;;7.00;6.13;;;17.50;65.00;;;16.76;64.81;97943.47;5020211;28;20819;-69
2021/10/02 08:50:34;;;;;;;5.03;4.53;;;17.80;64.80;;;17.13;60.93;97948.19;5025312;28;20442;-68
2021/10/02 08:53:02;;;;;;;6.13;4.90;;;18.00;62.60;;;16.93;62.23;97949.63;5022875;28;20462;-72
2021/10/02 08:55:45;;;;;;;5.73;5.13;;;17.90;63.00;;;17.30;60.33;97960.88;5020098;28;20478;-72
2021/10/02 08:58:12;;;;;;;8.93;5.60;;;18.00;62.60;;;17.41;59.89;97952.50;5020278;28;20477;-77
2021/10/02 09:00:40;;;;;;;6.20;5.60;;;18.20;62.00;;;17.38;60.43;97949.50;5023198;28;20482;-71
2021/10/02 09:03:08;;;;;;;6.00;4.90;;;18.30;62.00;;;16.99;62.25;97928.72;5021480;28;21111;-73
2021/10/02 09:05:37;;;;;;;6.13;5.63;;;18.20;62.60;;;16.76;63.16;97924.38;5022345;28;20494;-76
2021/10/02 09:08:05;;;;;;;5.60;5.10;;;18.00;63.10;;;16.42;63.95;97941.75;5023099;28;21002;-82
2021/10/02 09:10:35;;;;;;;5.67;4.97;;;17.60;62.90;;;16.24;64.00;97941.00;5040159;28;20485;-72
2021/10/02 09:13:08;;;;;;;5.10;4.20;;;17.30;63.10;;;16.33;63.00;97935.94;5018413;28;20930;-81
2021/10/02 09:15:35;;;;;;;6.30;4.23;;;17.30;62.60;;;16.73;62.86;97946.69;5022102;28;20477;-77
2021/10/02 09:18:03;;;;;;;5.50;4.20;;;17.40;63.00;;;16.78;61.34;97928.47;5019157;28;20494;-78
2021/10/02 09:20:30;;;;;;;6.23;4.60;;;17.60;62.00;;;16.75;61.30;97922.72;5026523;28;20462;-81
2021/10/02 09:23:01;;;;;;;8.37;4.00;;;17.70;61.70;;;16.59;61.41;97925.28;5040182;28;20449;-72
2021/10/02 09:25:31;;;;;;;4.87;4.40;;;17.60;61.60;;;16.40;63.41;97933.00;5036914;28;20995;-80
2021/10/02 09:28:09;;;;;;;5.47;4.53;;;17.50;62.20;;;16.60;61.64;97937.03;5022829;28;20455;-73
2021/10/02 09:30:37;;;;;;;4.60;4.03;;;17.50;61.70;;;16.53;61.83;97915.41;5023920;28;20989;-71
2021/10/02 09:33:09;;;;;;;6.80;4.60;;;17.50;61.80;;;16.59;62.22;97930.72;5034030;28;23223;-80
2021/10/02 09:35:39;;;;;;;5.93;4.27;;;17.50;61.90;;;16.69;60.60;97919.13;5030857;28;20500;-76
2021/10/02 09:38:12;;;;;;;4.00;3.70;;;17.60;61.30;;;16.62;61.63;97927.53;5022324;28;20481;-75
2021/10/02 09:40:40;;;;;;;4.70;3.93;;;17.70;61.50;;;16.76;61.82;97922.47;5021487;28;20481;-76
2021/10/02 09:43:07;;;;;;;3.73;3.43;;;17.60;61.60;;;16.88;60.78;97922.28;5021039;28;20583;-75
2021/10/02 09:45:38;;;;;;;6.77;4.10;;;17.70;61.50;;;16.95;60.64;97916.63;5021958;28;20482;-76
2021/10/02 09:48:09;;;;;;;4.43;4.03;;;17.80;60.90;;;16.90;60.69;97911.94;5016729;28;20471;-71
2021/10/02 09:50:38;;;;;;;5.40;3.60;;;17.90;61.30;;;17.08;61.12;97909.94;5024568;28;21045;-80
2021/10/02 09:53:07;;;;;;;4.53;3.50;;;17.90;61.50;;;17.32;59.63;97904.94;5033563;28;20450;-76
2021/10/02 09:55:37;;;;;;;5.10;4.00;;;18.10;60.90;;;17.42;58.78;97902.25;5025881;28;20520;-80
2021/10/02 09:58:08;;;;;;;3.97;3.67;;;18.20;60.40;;;17.22;58.91;97904.84;5019996;28;20761;-79
2021/10/02 10:00:37;;;;;;;4.23;3.87;;;18.20;59.90;;;17.54;59.33;97902.09;5018346;28;20466;-80
2021/10/02 10:03:07;;;;;;;3.73;3.43;;;18.30;60.60;;;17.62;59.44;97902.66;5024103;28;20463;-79
2021/10/02 10:05:36;;;;;;;4.53;4.10;;;18.40;60.80;;;17.26;59.82;97895.06;5024623;28;21003;-72
2021/10/02 10:08:06;;;;;;;4.90;4.03;;;18.20;60.40;;;17.28;59.91;97888.25;5020842;28;20565;-72
2021/10/02 10:10:38;;;;;;;3.73;3.43;;;18.20;60.50;;;17.64;59.61;97884.94;5022348;28;20478;-72
2021/10/02 10:13:13;;;;;;;3.73;3.43;;;18.40;60.80;;;17.72;59.84;97872.66;5022687;28;20536;-72
2021/10/02 10:15:42;;;;;;;5.27;4.30;;;18.50;61.20;;;17.85;59.71;97876.81;5031235;28;21095;-71
2021/10/02 10:18:13;;;;;;;5.20;4.57;;;18.60;61.20;;;17.56;59.82;97872.59;5021354;28;21046;-74
2021/10/02 10:20:48;;;;;;;4.47;3.87;;;18.50;60.60;;;17.83;59.41;97866.16;5019172;28;20451;-75
2021/10/02 10:23:15;;;;;;;6.03;4.03;;;18.60;60.80;;;18.00;58.59;97865.16;5037913;28;21088;-83
2021/10/02 10:25:57;;;;;;;7.03;3.97;;;18.80;60.50;;;17.83;59.37;97863.44;5019594;28;20486;-83
2021/10/02 10:28:27;;;;;;;5.40;3.77;;;18.70;60.60;;;18.09;58.86;97854.53;5038608;28;20504;-80
2021/10/02 10:31:08;;;;;;;4.77;4.27;;;18.90;60.60;;;18.16;58.23;97851.56;5020399;28;20563;-79
2021/10/02 10:33:36;;;;;;;5.30;4.53;;;19.00;60.30;;;18.18;58.69;97849.38;5022063;28;20462;-81
2021/10/02 10:36:03;;;;;;;4.87;4.37;;;19.00;60.30;;;18.27;57.97;97848.56;5023904;28;20831;-79
2021/10/02 10:38:35;;;;;;;4.03;3.70;;;19.10;60.10;;;18.18;58.20;97838.44;5019793;28;20470;-80
2021/10/02 10:41:05;;;;;;;4.47;4.07;;;19.00;60.10;;;18.29;57.65;97844.75;5022023;28;20549;-82
2021/10/02 10:43:33;;;;;;;4.07;3.77;;;19.10;59.80;;;18.35;56.38;97844.47;5022690;28;20491;-79
2021/10/02 10:46:01;;;;;;;4.40;3.93;;;19.20;59.10;;;18.31;55.53;97854.31;5023555;28;20474;-82
2021/10/02 10:48:29;;;;;;;4.13;3.57;;;19.20;58.30;;;18.33;56.40;97845.84;5021118;28;20746;-81
2021/10/02 10:51:01;;;;;;;5.33;4.30;;;19.20;58.80;;;18.31;56.24;97824.25;5021629;28;20482;-79
2021/10/02 10:53:36;;;;;;;5.23;4.03;;;19.20;58.60;;;18.91;54.39;97833.84;5025600;28;21023;-80
2021/10/02 10:56:06;;;;;;;4.23;3.73;;;19.50;58.20;;;19.04;54.70;97827.84;5036712;28;21006;-79
2021/10/02 10:58:34;;;;;;;4.57;4.10;;;19.70;58.30;;;19.00;56.05;97825.94;5024081;28;20954;-80
2021/10/02 11:01:04;;;;;;;8.00;4.57;;;19.90;59.00;;;19.08;55.63;97833.59;5029796;28;20458;-82
2021/10/02 11:03:37;;;;;;;5.30;4.60;;;19.90;59.20;;;18.83;56.41;97838.78;5027746;28;20587;-79
2021/10/02 11:06:05;;;;;;;5.33;4.83;;;19.70;59.00;;;18.86;56.09;97820.97;5024463;28;20486;-80
2021/10/02 11:09:03;;;;;;;7.77;4.53;;;19.80;59.10;;;18.74;55.77;97817.72;5029408;28;20469;-80
2021/10/02 11:12:03;;;;;;;4.50;4.10;;;19.70;58.40;;;18.91;56.23;97821.00;5029292;28;20463;-79
2021/10/02 11:15:02;;;;;;;6.27;4.60;;;19.80;58.90;;;18.93;56.94;97818.78;5023804;28;20484;-79
2021/10/02 11:17:44;;;;;;;4.53;4.10;;;19.80;59.50;;;18.93;56.70;97810.59;5024331;28;20455;-80
2021/10/02 11:20:40;;;;;;;5.53;4.03;;;19.80;59.10;;;18.89;56.69;97812.25;5021976;28;20466;-79
2021/10/02 11:24:08;;;;;;;4.20;3.80;;;19.80;59.20;;;18.54;56.89;97800.19;5025400;28;20600;-78
2021/10/02 11:26:48;;;;;;;5.03;4.53;;;19.60;58.60;;;18.53;57.09;97802.13;5027367;28;20573;-80
2021/10/02 11:29:31;;;;;;;5.03;4.57;;;19.30;59.00;;;18.64;55.94;97794.72;5024631;28;20483;-80